Time;durP1;ratioP1;P1;durP2;ratioP2;P2;SDS_P1;SDS_P2;PMS_P1;PMS_P2;Temp;Humidity;BMP_temperature;BMP_pressure;BME280_temperature;BME280_humidity;BME280_pressure;Samples;Min_cycle;Max_cycle;Signal;HPM_P1;HPM_P2
2022/12/08 00:01:32;;;;;;;6.25;1.58;;;2.60;99.90;;;;;;5092531;28;20042;-65
2022/12/08 00:04:02;;;;;;;7.30;1.48;;;2.70;99.90;;;;;;5109946;28;20035;-65
2022/12/08 00:09:37;;;;;;;6.10;1.20;;;2.80;99.90;;;;;;5110508;28;20043;-66
2022/12/08 00:12:08;;;;;;;5.72;1.50;;;2.80;99.90;;;;;;5110489;28;20058;-66
2022/12/08 00:14:40;;;;;;;6.18;1.25;;;2.80;99.90;;;;;;5110313;28;20104;-66
2022/12/08 00:17:08;;;;;;;6.05;1.10;;;2.70;99.90;;;;;;5112149;28;20483;-67
2022/12/08 00:19:35;;;;;;;3.55;1.20;;;2.60;99.90;;;;;;5095486;28;20048;-66
2022/12/08 00:22:02;;;;;;;4.47;1.70;;;2.60;99.90;;;;;;5078017;28;20043;-66
2022/12/08 00:24:34;;;;;;;3.55;0.98;;;2.50;99.90;;;;;;5083074;28;20573;-66
2022/12/08 00:27:03;;;;;;;4.05;1.20;;;2.50;99.90;;;;;;5085306;28;20043;-66
2022/12/08 00:29:29;;;;;;;6.00;1.08;;;2.50;99.90;;;;;;5094961;28;20046;-66
2022/12/08 00:31:55;;;;;;;6.65;1.15;;;2.50;99.90;;;;;;5114249;28;20051;-66
2022/12/08 00:34:20;;;;;;;1.67;1.02;;;2.50;99.90;;;;;;5092456;28;20071;-66
2022/12/08 00:36:46;;;;;;;3.10;1.10;;;2.50;99.90;;;;;;5110344;28;20494;-66
2022/12/08 00:39:13;;;;;;;5.30;0.93;;;2.50;99.90;;;;;;5095282;28;20044;-66
2022/12/08 00:44:23;;;;;;;3.03;0.70;;;2.50;99.90;;;;;;5095312;28;20039;-66
2022/12/08 00:46:49;;;;;;;3.00;0.68;;;2.50;99.90;;;;;;5114012;28;20046;-66
2022/12/08 00:49:15;;;;;;;4.93;1.40;;;2.60;99.90;;;;;;5075670;28;20076;-66
2022/12/08 00:51:42;;;;;;;4.63;1.50;;;2.60;99.90;;;;;;5089530;28;20040;-66
2022/12/08 00:54:08;;;;;;;4.35;1.50;;;2.70;99.90;;;;;;5095254;28;20066;-66
2022/12/08 00:56:34;;;;;;;5.53;1.20;;;2.70;99.90;;;;;;5114068;28;20058;-66
2022/12/08 00:59:02;;;;;;;4.65;1.40;;;2.80;99.90;;;;;;5113865;28;20039;-66
2022/12/08 01:01:27;;;;;;;3.15;0.77;;;2.80;99.90;;;;;;5113798;28;20511;-66
2022/12/08 01:03:53;;;;;;;5.10;0.80;;;2.80;99.90;;;;;;5113216;28;20046;-66
2022/12/08 01:06:19;;;;;;;3.95;1.42;;;2.80;99.90;;;;;;5092369;28;20123;-66
2022/12/08 01:08:45;;;;;;;6.82;1.95;;;2.90;99.90;;;;;;5094393;28;20644;-66
2022/12/08 01:11:20;;;;;;;5.30;2.75;;;3.00;99.90;;;;;;5086326;28;20116;-66
2022/12/08 01:13:46;;;;;;;4.38;1.73;;;3.10;99.90;;;;;;5108864;28;20047;-66
2022/12/08 01:16:24;;;;;;;5.00;2.70;;;3.30;99.90;;;;;;5091932;28;20044;-66
2022/12/08 01:18:49;;;;;;;8.88;3.92;;;3.30;99.90;;;;;;5082135;28;20408;-66
2022/12/08 01:21:15;;;;;;;10.65;4.07;;;3.40;99.90;;;;;;5086276;28;20040;-66
2022/12/08 01:23:41;;;;;;;7.60;2.17;;;3.40;99.90;;;;;;5093156;28;20036;-66
2022/12/08 01:26:09;;;;;;;4.28;1.20;;;3.40;99.90;;;;;;5093023;28;20137;-66
2022/12/08 01:28:34;;;;;;;2.92;0.70;;;3.40;99.90;;;;;;5069728;28;20101;-66
2022/12/08 01:31:01;;;;;;;1.42;0.55;;;3.40;99.90;;;;;;5097562;28;20044;-66
2022/12/08 01:33:28;;;;;;;1.83;0.50;;;3.50;99.90;;;;;;5092804;28;20557;-66
2022/12/08 01:35:56;;;;;;;5.20;1.30;;;3.40;99.90;;;;;;5092678;28;20531;-66
2022/12/08 01:38:22;;;;;;;2.00;0.70;;;3.40;99.90;;;;;;5083445;28;20052;-66
2022/12/08 01:40:48;;;;;;;7.18;1.42;;;3.50;99.90;;;;;;5069965;28;20044;-66
2022/12/08 01:43:19;;;;;;;3.60;0.80;;;3.50;99.90;;;;;;5092519;28;20040;-66
2022/12/08 01:45:46;;;;;;;1.75;0.88;;;3.50;99.90;;;;;;5091897;28;20040;-66
2022/12/08 01:48:22;;;;;;;3.97;1.50;;;3.50;99.90;;;;;;5083932;28;20052;-66
2022/12/08 01:50:50;;;;;;;3.35;0.90;;;3.50;99.90;;;;;;5104839;28;20058;-66
2022/12/08 01:53:22;;;;;;;5.32;1.00;;;3.50;99.90;;;;;;5076185;28;20055;-66
2022/12/08 01:56:05;;;;;;;3.83;0.82;;;3.50;99.90;;;;;;5092408;28;20052;-66
2022/12/08 01:58:41;;;;;;;3.20;1.02;;;3.50;99.90;;;;;;5092168;28;20082;-66
2022/12/08 02:01:09;;;;;;;4.80;0.93;;;3.50;99.90;;;;;;5083870;28;20071;-67
2022/12/08 02:03:35;;;;;;;5.50;2.17;;;3.50;99.90;;;;;;5094634;28;20036;-67
2022/12/08 02:06:02;;;;;;;6.90;1.40;;;3.50;99.90;;;;;;5061977;28;20788;-67
2022/12/08 02:08:29;;;;;;;4.10;1.00;;;3.50;99.90;;;;;;5091405;28;20092;-67
2022/12/08 02:10:55;;;;;;;2.70;0.77;;;3.50;99.90;;;;;;5094237;28;20044;-67
2022/12/08 02:13:23;;;;;;;3.10;1.20;;;3.50;99.90;;;;;;5112424;28;20063;-66
2022/12/08 02:16:19;;;;;;;4.53;1.23;;;3.40;99.90;;;;;;5111840;28;20088;-67
2022/12/08 02:19:05;;;;;;;5.60;1.17;;;3.40;99.90;;;;;;5079098;28;20050;-65
2022/12/08 02:21:31;;;;;;;2.88;0.98;;;3.40;99.90;;;;;;5082276;28;20404;-67
2022/12/08 02:24:21;;;;;;;4.47;1.00;;;3.40;99.90;;;;;;5083927;28;20038;-67
2022/12/08 02:26:50;;;;;;;;;;;3.30;99.90;;;;;;5074711;28;20090;-67
2022/12/08 02:29:31;;;;;;;3.58;1.00;;;3.30;99.90;;;;;;5091733;28;19916;-67
2022/12/08 02:32:07;;;;;;;4.28;1.45;;;3.30;99.90;;;;;;5074086;28;20105;-67
2022/12/08 02:34:40;;;;;;;4.20;1.30;;;3.30;99.90;;;;;;5056617;28;20044;-67
2022/12/08 02:37:14;;;;;;;3.70;1.60;;;3.30;99.90;;;;;;5090415;28;20070;-68
2022/12/08 02:40:00;;;;;;;5.32;1.67;;;3.30;99.90;;;;;;5089882;28;20044;-67
2022/12/08 02:42:38;;;;;;;6.38;0.85;;;3.30;99.90;;;;;;5091736;28;20032;-66
2022/12/08 02:45:32;;;;;;;3.42;0.82;;;3.40;99.90;;;;;;5090412;28;20040;-67
2022/12/08 02:47:59;;;;;;;3.03;0.70;;;3.40;99.90;;;;;;5073632;28;20388;-67
2022/12/08 02:50:28;;;;;;;3.55;1.10;;;3.40;99.90;;;;;;5056716;28;20036;-67
2022/12/08 02:52:54;;;;;;;3.10;1.27;;;3.40;99.90;;;;;;5091240;28;20036;-67
2022/12/08 02:55:23;;;;;;;7.72;1.65;;;3.40;99.90;;;;;;5073451;28;20484;-67
2022/12/08 02:58:13;;;;;;;3.00;0.85;;;3.40;99.90;;;;;;5056874;28;20738;-67
2022/12/08 03:01:02;;;;;;;3.85;0.82;;;3.40;99.90;;;;;;5090387;28;20488;-67
2022/12/08 03:03:41;;;;;;;7.00;1.77;;;3.30;99.90;;;;;;5091620;28;20036;-67
2022/12/08 03:06:31;;;;;;;4.90;1.92;;;3.30;99.90;;;;;;5091540;28;20032;-67
2022/12/08 03:09:01;;;;;;;5.40;1.85;;;3.40;99.90;;;;;;5091357;28;20503;-67
2022/12/08 03:11:29;;;;;;;;;;;3.40;99.90;;;;;;5090513;28;20101;-67
2022/12/08 03:14:00;;;;;;;5.07;1.05;;;3.40;99.90;;;;;;5072964;28;19974;-68
2022/12/08 03:16:28;;;;;;;4.82;1.42;;;3.40;99.90;;;;;;5091468;28;20036;-68
2022/12/08 03:19:14;;;;;;;6.47;1.45;;;3.40;99.90;;;;;;5073177;28;20044;-68
2022/12/08 03:21:42;;;;;;;5.00;0.73;;;3.50;99.90;;;;;;5091302;28;20153;-67
2022/12/08 03:24:10;;;;;;;4.38;0.60;;;3.40;99.90;;;;;;5091174;28;20475;-68
2022/12/08 03:26:53;;;;;;;3.72;0.60;;;3.50;99.90;;;;;;5091184;28;20047;-68
2022/12/08 03:29:19;;;;;;;2.75;0.50;;;3.50;99.90;;;;;;5089781;28;20047;-67
2022/12/08 03:31:56;;;;;;;5.10;0.50;;;3.50;99.90;;;;;;5091102;28;20119;-67
2022/12/08 03:34:26;;;;;;;1.63;0.60;;;3.50;99.90;;;;;;5090965;28;20040;-67
2022/12/08 03:36:52;;;;;;;3.03;0.33;;;3.50;99.90;;;;;;5091152;28;20040;-67
2022/12/08 03:39:18;;;;;;;3.50;0.95;;;3.50;99.90;;;;;;5072737;28;20048;-67
2022/12/08 03:41:45;;;;;;;3.08;0.43;;;3.50;99.90;;;;;;5055778;28;20046;-67
2022/12/08 03:44:12;;;;;;;3.22;0.50;;;3.60;99.90;;;;;;5072766;28;20040;-67
2022/12/08 03:46:37;;;;;;;5.45;0.45;;;3.50;99.90;;;;;;5090817;28;20474;-67
2022/12/08 03:49:03;;;;;;;2.15;0.45;;;3.50;99.90;;;;;;5072668;28;20040;-67
2022/12/08 03:51:29;;;;;;;4.40;0.40;;;3.50;99.90;;;;;;5090478;28;20036;-67
2022/12/08 03:53:55;;;;;;;2.88;0.50;;;3.50;99.90;;;;;;5089062;28;20060;-67
2022/12/08 03:56:33;;;;;;;4.65;0.73;;;3.40;99.90;;;;;;5090021;28;20044;-67
2022/12/08 03:58:59;;;;;;;2.33;0.50;;;3.40;99.90;;;;;;5055791;28;20127;-67
2022/12/08 04:01:25;;;;;;;1.25;0.30;;;3.30;99.90;;;;;;5090596;28;20123;-67
2022/12/08 04:03:51;;;;;;;2.22;0.45;;;3.30;99.90;;;;;;5072423;28;20036;-67
2022/12/08 04:06:17;;;;;;;3.47;0.43;;;3.30;99.90;;;;;;5090539;28;20563;-67
2022/12/08 04:08:43;;;;;;;4.32;0.40;;;3.20;99.90;;;;;;5089198;28;20047;-66
2022/12/08 04:11:10;;;;;;;1.73;0.50;;;3.20;99.90;;;;;;5055274;28;20173;-66
2022/12/08 04:13:37;;;;;;;2.28;0.77;;;3.20;99.90;;;;;;5072343;28;20036;-67
2022/12/08 04:16:04;;;;;;;4.70;1.00;;;3.10;99.90;;;;;;5072384;28;20102;-67
2022/12/08 04:18:31;;;;;;;4.75;0.57;;;3.00;99.90;;;;;;5072195;28;20044;-67
2022/12/08 04:20:57;;;;;;;5.78;0.40;;;3.00;99.90;;;;;;5072603;28;20435;-66
2022/12/08 04:23:22;;;;;;;1.85;0.40;;;3.00;99.90;;;;;;5072458;28;20036;-67
2022/12/08 04:25:50;;;;;;;3.70;0.40;;;3.00;99.90;;;;;;5071740;28;20067;-67
2022/12/08 04:28:16;;;;;;;2.67;0.50;;;3.00;99.90;;;;;;5090494;28;20040;-67
2022/12/08 04:30:42;;;;;;;5.03;0.60;;;2.90;99.90;;;;;;5071643;28;20087;-67
2022/12/08 04:33:08;;;;;;;1.83;0.47;;;2.90;99.90;;;;;;5071675;28;20052;-66
2022/12/08 04:35:34;;;;;;;1.38;0.50;;;2.90;99.90;;;;;;5071999;28;20766;-66
2022/12/08 04:37:59;;;;;;;0.85;0.30;;;2.90;99.90;;;;;;5072293;28;20040;-67
2022/12/08 04:40:25;;;;;;;6.18;0.80;;;2.90;99.90;;;;;;5071872;28;20054;-66
2022/12/08 04:42:51;;;;;;;2.53;1.02;;;2.90;99.90;;;;;;5072335;28;20086;-67
2022/12/08 04:45:17;;;;;;;4.45;0.60;;;2.90;99.90;;;;;;5055300;28;20460;-66
2022/12/08 04:47:43;;;;;;;2.92;0.75;;;2.90;99.90;;;;;;5090322;28;20043;-66
2022/12/08 04:50:09;;;;;;;1.65;0.50;;;2.90;99.90;;;;;;5072252;28;20040;-66
2022/12/08 04:52:35;;;;;;;2.67;0.68;;;2.90;99.90;;;;;;5072347;28;20426;-66
2022/12/08 04:55:01;;;;;;;4.43;0.80;;;2.80;99.90;;;;;;5071329;28;20063;-66
2022/12/08 04:57:27;;;;;;;4.15;0.80;;;2.80;99.90;;;;;;5072193;28;20392;-66
2022/12/08 04:59:52;;;;;;;3.05;0.75;;;2.80;99.90;;;;;;5071859;28;20044;-66
2022/12/08 05:02:18;;;;;;;2.47;0.80;;;2.80;99.90;;;;;;5071844;28;20079;-66
2022/12/08 05:04:44;;;;;;;3.55;1.17;;;2.80;99.90;;;;;;5058132;28;20072;-66
2022/12/08 05:07:09;;;;;;;5.22;1.75;;;2.80;99.90;;;;;;5059339;28;20123;-66
2022/12/08 05:09:35;;;;;;;3.40;1.30;;;2.80;99.90;;;;;;5093108;28;20496;-66
2022/12/08 05:12:01;;;;;;;3.83;1.85;;;2.70;99.90;;;;;;5093761;28;20051;-66
2022/12/08 05:14:27;;;;;;;5.68;1.70;;;2.70;99.90;;;;;;5075396;28;20093;-66
2022/12/08 05:16:52;;;;;;;4.10;1.60;;;2.70;99.90;;;;;;5075311;28;20051;-66
2022/12/08 05:19:18;;;;;;;2.15;1.25;;;2.70;99.90;;;;;;5093520;28;20044;-67
2022/12/08 05:21:44;;;;;;;3.83;1.20;;;2.70;99.90;;;;;;5093435;28;20196;-66
2022/12/08 05:24:10;;;;;;;5.97;1.33;;;2.70;99.90;;;;;;5075023;28;20048;-66
2022/12/08 05:26:35;;;;;;;5.00;1.20;;;2.70;99.90;;;;;;5093433;28;20432;-66
2022/12/08 05:29:01;;;;;;;2.78;1.20;;;2.70;99.90;;;;;;5093283;28;20105;-66
2022/12/08 05:31:27;;;;;;;3.60;1.38;;;2.80;99.90;;;;;;5075207;28;20075;-66
2022/12/08 05:33:53;;;;;;;3.45;0.70;;;2.80;99.90;;;;;;5075280;28;20036;-66
2022/12/08 05:36:19;;;;;;;2.22;0.50;;;2.80;99.90;;;;;;5093267;28;20490;-66
2022/12/08 05:38:46;;;;;;;1.10;0.50;;;2.80;99.90;;;;;;5092756;28;20040;-66
2022/12/08 05:41:18;;;;;;;3.10;0.52;;;2.90;99.90;;;;;;5058231;28;20503;-66
2022/12/08 05:43:44;;;;;;;3.55;0.50;;;2.90;99.90;;;;;;5075011;28;20197;-66
2022/12/08 05:46:10;;;;;;;3.85;0.60;;;2.90;99.90;;;;;;5074779;28;20044;-66
2022/12/08 05:48:37;;;;;;;3.70;0.55;;;2.90;99.90;;;;;;5092977;28;20035;-66
2022/12/08 05:51:03;;;;;;;6.50;0.68;;;2.90;99.90;;;;;;5092824;28;20043;-65
2022/12/08 05:53:29;;;;;;;6.05;0.50;;;2.90;99.90;;;;;;5092236;28;20407;-65
2022/12/08 05:55:54;;;;;;;2.67;0.50;;;2.90;99.90;;;;;;5074608;28;20045;-65
2022/12/08 05:58:22;;;;;;;2.05;0.60;;;2.90;99.90;;;;;;5074417;28;20043;-66
2022/12/08 06:00:48;;;;;;;5.05;0.50;;;2.90;99.90;;;;;;5074868;28;20052;-65
2022/12/08 06:03:16;;;;;;;3.78;0.70;;;2.90;99.90;;;;;;5058142;28;20404;-65
2022/12/08 06:05:43;;;;;;;7.72;0.93;;;2.90;99.90;;;;;;5092777;28;20047;-65
2022/12/08 06:08:09;;;;;;;3.78;0.60;;;2.90;99.90;;;;;;5073977;28;20047;-65
2022/12/08 06:10:38;;;;;;;1.90;0.45;;;2.90;99.90;;;;;;5092553;28;20040;-66
2022/12/08 06:13:04;;;;;;;2.72;0.50;;;2.90;99.90;;;;;;5092693;28;20043;-65
2022/12/08 06:15:29;;;;;;;3.40;0.60;;;2.90;99.90;;;;;;5073875;28;20040;-65
2022/12/08 06:17:55;;;;;;;7.35;0.88;;;2.90;99.90;;;;;;5074360;28;20127;-66
2022/12/08 06:20:21;;;;;;;2.72;0.90;;;2.90;99.90;;;;;;5092342;28;20396;-65
2022/12/08 06:22:47;;;;;;;1.40;0.52;;;2.90;99.90;;;;;;5073641;28;20040;-65
2022/12/08 06:25:12;;;;;;;7.43;1.23;;;2.90;99.90;;;;;;5091547;28;20056;-65
2022/12/08 06:27:38;;;;;;;5.57;0.82;;;2.80;99.90;;;;;;5073177;28;20043;-66
2022/12/08 06:30:05;;;;;;;5.25;0.80;;;2.80;99.90;;;;;;5091627;28;20058;-65
2022/12/08 06:32:30;;;;;;;3.25;0.60;;;2.80;99.90;;;;;;5073562;28;20499;-65
2022/12/08 06:34:56;;;;;;;2.05;0.70;;;2.80;99.90;;;;;;5057211;28;20048;-65
2022/12/08 06:37:22;;;;;;;2.42;0.55;;;2.80;99.90;;;;;;5073311;28;20040;-66
2022/12/08 06:39:47;;;;;;;5.13;0.57;;;2.80;99.90;;;;;;5091630;28;20063;-66
2022/12/08 06:44:58;;;;;;;1.80;0.50;;;2.80;99.90;;;;;;5091925;28;20579;-66
2022/12/08 06:47:24;;;;;;;2.50;0.47;;;2.80;99.90;;;;;;5091904;28;20080;-66
2022/12/08 06:49:50;;;;;;;5.32;1.45;;;2.80;99.90;;;;;;5073689;28;20079;-66
2022/12/08 06:52:16;;;;;;;3.15;0.50;;;2.80;99.90;;;;;;5091259;28;20051;-66
2022/12/08 06:54:41;;;;;;;4.30;0.50;;;2.70;99.90;;;;;;5091473;28;20101;-65
2022/12/08 06:57:07;;;;;;;2.95;0.63;;;2.70;99.90;;;;;;5056681;28;20051;-65
2022/12/08 06:59:33;;;;;;;4.18;0.70;;;2.70;99.90;;;;;;5091719;28;20051;-65
2022/12/08 07:01:59;;;;;;;3.53;0.40;;;2.60;99.90;;;;;;5056739;28;20086;-64
2022/12/08 07:04:24;;;;;;;2.75;0.60;;;2.60;99.90;;;;;;5072861;28;20047;-65
2022/12/08 07:06:50;;;;;;;2.50;0.40;;;2.60;99.90;;;;;;5072972;28;20092;-65
2022/12/08 07:09:16;;;;;;;6.13;1.00;;;2.50;99.90;;;;;;5091444;28;20149;-64
2022/12/08 07:11:42;;;;;;;1.92;0.63;;;2.50;99.90;;;;;;5073276;28;20047;-65
2022/12/08 07:14:08;;;;;;;1.02;0.60;;;2.40;99.90;;;;;;5073428;28;20047;-65
2022/12/08 07:16:33;;;;;;;3.25;0.60;;;2.40;99.90;;;;;;5091409;28;20048;-66
2022/12/08 07:18:59;;;;;;;2.10;0.50;;;2.40;99.90;;;;;;5072371;28;20136;-65
2022/12/08 07:21:25;;;;;;;1.83;0.70;;;2.40;99.90;;;;;;5073019;28;20044;-66
2022/12/08 07:23:51;;;;;;;6.03;0.47;;;2.30;99.90;;;;;;5072990;28;20175;-66
2022/12/08 07:26:17;;;;;;;2.83;0.80;;;2.30;99.90;;;;;;5072149;28;20043;-66
2022/12/08 07:28:43;;;;;;;4.90;0.50;;;2.20;99.90;;;;;;5073040;28;20047;-66
2022/12/08 07:31:20;;;;;;;2.47;0.60;;;2.20;99.90;;;;;;5091033;28;20551;-66
2022/12/08 07:33:46;;;;;;;3.58;0.77;;;2.10;99.90;;;;;;5090656;28;20040;-66
2022/12/08 07:36:13;;;;;;;3.80;0.65;;;2.10;99.90;;;;;;5072968;28;20040;-66
2022/12/08 07:38:39;;;;;;;4.38;0.70;;;2.10;99.90;;;;;;5072522;28;20066;-66
2022/12/08 07:41:09;;;;;;;2.95;0.65;;;2.00;99.90;;;;;;5090675;28;20488;-66
2022/12/08 07:43:35;;;;;;;2.10;0.70;;;2.00;99.90;;;;;;5056312;28;20040;-66
2022/12/08 07:46:01;;;;;;;3.00;0.70;;;2.00;99.90;;;;;;5090964;28;20473;-66
2022/12/08 07:48:27;;;;;;;4.00;0.50;;;2.00;99.90;;;;;;5072254;28;20048;-66
2022/12/08 07:51:00;;;;;;;2.38;0.70;;;2.00;99.90;;;;;;5072631;28;20051;-66
2022/12/08 07:53:25;;;;;;;3.95;0.73;;;1.90;99.90;;;;;;5090593;28;20503;-66
2022/12/08 07:55:51;;;;;;;2.40;0.80;;;1.90;99.90;;;;;;5090768;28;20048;-66
2022/12/08 07:58:17;;;;;;;2.35;0.63;;;1.90;99.90;;;;;;5072366;28;20051;-65
2022/12/08 08:00:43;;;;;;;8.10;0.80;;;1.80;99.90;;;;;;5072294;28;20078;-66
2022/12/08 08:03:10;;;;;;;5.43;1.42;;;1.80;99.90;;;;;;5089982;28;20040;-66
2022/12/08 08:05:36;;;;;;;3.65;1.05;;;1.80;99.90;;;;;;5072445;28;20096;-66
2022/12/08 08:08:02;;;;;;;6.70;1.05;;;1.80;99.90;;;;;;5090879;28;20119;-66
2022/12/08 08:10:27;;;;;;;4.13;1.08;;;1.70;99.90;;;;;;5090626;28;20047;-66
2022/12/08 08:12:53;;;;;;;7.80;1.52;;;1.70;99.90;;;;;;5090113;28;20259;-66
2022/12/08 08:15:20;;;;;;;6.38;3.22;;;1.70;99.90;;;;;;5090330;28;20396;-65
2022/12/08 08:17:50;;;;;;;4.85;3.30;;;1.70;99.90;;;;;;5071762;28;20086;-66
2022/12/08 08:20:16;;;;;;;9.57;3.25;;;1.80;99.90;;;;;;5095696;28;20317;-66
2022/12/08 08:22:45;;;;;;;6.18;2.72;;;1.80;99.90;;;;;;5109676;28;20039;-66
2022/12/08 08:25:12;;;;;;;7.18;2.70;;;1.80;99.90;;;;;;5110420;28;20160;-65
2022/12/08 08:27:38;;;;;;;8.50;3.53;;;1.90;99.90;;;;;;5110368;28;20039;-64
2022/12/08 08:30:08;;;;;;;5.55;1.92;;;1.90;99.90;;;;;;5110752;28;20122;-65
2022/12/08 08:32:34;;;;;;;7.38;2.42;;;2.00;99.90;;;;;;5080496;28;20048;-65
2022/12/08 08:35:01;;;;;;;4.43;1.73;;;2.00;99.90;;;;;;5089198;28;20718;-65
2022/12/08 08:37:26;;;;;;;6.35;2.47;;;2.10;99.90;;;;;;5072716;28;20682;-66
2022/12/08 08:39:52;;;;;;;4.38;1.83;;;2.10;99.90;;;;;;5094438;28;20080;-65
2022/12/08 08:42:19;;;;;;;4.30;2.08;;;2.20;99.90;;;;;;5093197;28;20484;-65
2022/12/08 08:44:44;;;;;;;6.05;2.50;;;2.20;99.90;;;;;;5094018;28;20051;-65
2022/12/08 08:47:10;;;;;;;7.50;1.58;;;2.20;99.90;;;;;;5092588;28;20032;-65
2022/12/08 08:49:36;;;;;;;3.25;1.48;;;2.20;99.90;;;;;;5094313;28;20488;-65
2022/12/08 08:52:03;;;;;;;3.47;1.50;;;2.20;99.90;;;;;;5102425;28;20032;-65
2022/12/08 08:54:30;;;;;;;4.93;2.15;;;2.30;99.90;;;;;;5102458;28;20058;-65
2022/12/08 08:57:00;;;;;;;4.38;1.17;;;2.30;99.90;;;;;;5079072;28;20100;-65
2022/12/08 08:59:27;;;;;;;3.78;1.10;;;2.30;99.90;;;;;;5079014;28;20470;-65
2022/12/08 09:01:53;;;;;;;3.17;1.42;;;2.30;99.90;;;;;;5092277;28;20089;-65
2022/12/08 09:04:20;;;;;;;3.67;1.40;;;2.30;99.90;;;;;;5095888;28;20064;-65
2022/12/08 09:06:47;;;;;;;3.38;1.38;;;2.30;99.90;;;;;;5104358;28;20032;-65
2022/12/08 09:09:13;;;;;;;8.23;1.83;;;2.20;99.90;;;;;;5058727;28;20040;-66
2022/12/08 09:11:39;;;;;;;5.97;1.60;;;2.30;99.90;;;;;;5093580;28;20429;-65
2022/12/08 09:14:06;;;;;;;5.10;2.25;;;2.20;99.90;;;;;;5075145;28;20047;-65
2022/12/08 09:16:32;;;;;;;5.55;1.67;;;2.20;99.90;;;;;;5075095;28;20395;-65
2022/12/08 09:18:58;;;;;;;4.47;1.73;;;2.20;99.90;;;;;;5093389;28;20054;-65
2022/12/08 09:21:25;;;;;;;3.28;1.67;;;2.30;99.90;;;;;;5075247;28;20468;-65
2022/12/08 09:23:54;;;;;;;5.32;1.27;;;2.30;99.90;;;;;;5093315;28;20032;-65
2022/12/08 09:26:21;;;;;;;3.88;1.50;;;2.30;99.90;;;;;;5093435;28;20039;-65
2022/12/08 09:28:51;;;;;;;6.38;2.00;;;2.30;99.90;;;;;;5058524;28;20136;-65
2022/12/08 09:31:19;;;;;;;4.97;1.80;;;2.40;99.90;;;;;;5074716;28;20083;-65
2022/12/08 09:33:45;;;;;;;2.90;1.42;;;2.40;99.90;;;;;;5074929;28;20051;-66
2022/12/08 09:36:11;;;;;;;6.57;1.75;;;2.40;99.90;;;;;;5093274;28;20626;-65
2022/12/08 09:38:38;;;;;;;5.88;1.40;;;2.50;99.90;;;;;;5074930;28;20048;-65
2022/12/08 09:41:16;;;;;;;3.25;1.60;;;2.60;99.90;;;;;;5096050;28;20492;-65
2022/12/08 09:43:57;;;;;;;6.05;2.95;;;2.70;99.90;;;;;;5095043;28;20071;-65
2022/12/08 09:46:27;;;;;;;6.78;2.90;;;2.70;99.90;;;;;;5113608;28;20040;-66
2022/12/08 09:48:54;;;;;;;;;;;3.00;99.90;;;;;;5094869;28;20075;-66
2022/12/08 09:51:24;;;;;;;5.63;2.78;;;4.00;99.90;;;;;;5111845;28;19916;-66
2022/12/08 09:54:02;;;;;;;3.13;1.67;;;5.00;99.90;;;;;;5113019;28;20116;-65
2022/12/08 09:56:34;;;;;;;4.68;1.75;;;5.40;99.90;;;;;;5095239;28;20047;-66
2022/12/08 09:59:28;;;;;;;4.60;1.48;;;5.40;99.90;;;;;;5112643;28;20084;-66
2022/12/08 10:01:54;;;;;;;4.78;1.35;;;5.10;99.90;;;;;;5112952;28;20476;-65
2022/12/08 10:04:25;;;;;;;4.75;1.70;;;5.80;99.90;;;;;;5094801;28;20051;-66
2022/12/08 10:06:50;;;;;;;4.05;1.67;;;7.10;99.90;;;;;;5094734;28;20033;-65
2022/12/08 10:09:40;;;;;;;3.90;1.10;;;8.40;99.90;;;;;;5094484;28;20130;-65
2022/12/08 10:12:20;;;;;;;3.60;1.00;;;9.70;99.90;;;;;;5094883;28;20456;-65
2022/12/08 10:15:02;;;;;;;5.10;1.00;;;10.80;99.90;;;;;;5077018;28;20281;-65
2022/12/08 10:17:36;;;;;;;4.60;0.80;;;11.60;99.90;;;;;;5111837;28;20047;-65
2022/12/08 10:20:19;;;;;;;3.33;0.65;;;12.20;99.90;;;;;;5093253;28;20078;-65
2022/12/08 10:22:49;;;;;;;3.35;0.80;;;12.10;99.90;;;;;;5111906;28;20031;-65
2022/12/08 10:25:21;;;;;;;4.68;1.20;;;11.30;99.90;;;;;;5112095;28;20028;-65
2022/12/08 10:27:51;;;;;;;6.25;0.90;;;11.20;99.90;;;;;;5093051;28;20365;-65
2022/12/08 10:30:18;;;;;;;2.10;0.70;;;10.80;99.90;;;;;;5111862;28;20115;-65
2022/12/08 10:32:48;;;;;;;4.05;1.30;;;10.50;99.90;;;;;;5111788;28;20377;-64
2022/12/08 10:35:17;;;;;;;4.03;1.50;;;10.60;99.90;;;;;;5093473;28;20040;-65
2022/12/08 10:38:00;;;;;;;3.97;1.73;;;10.00;99.90;;;;;;5079910;28;20036;-72
2022/12/08 10:40:28;;;;;;;4.28;1.98;;;9.10;99.90;;;;;;5088183;28;20067;-72
2022/12/08 10:42:56;;;;;;;5.80;2.20;;;8.40;99.90;;;;;;5091485;28;20046;-71
2022/12/08 10:45:37;;;;;;;8.65;3.10;;;7.90;99.90;;;;;;5091734;28;20042;-72
2022/12/08 10:48:30;;;;;;;7.10;3.00;;;7.40;99.90;;;;;;5073813;28;20097;-71
2022/12/08 10:50:58;;;;;;;4.82;2.58;;;6.90;99.90;;;;;;5071069;28;20063;-71
2022/12/08 10:53:43;;;;;;;5.63;3.00;;;6.60;99.90;;;;;;5091464;28;20110;-72
2022/12/08 10:56:16;;;;;;;7.97;3.53;;;6.20;99.90;;;;;;5070951;28;20766;-71
2022/12/08 10:58:44;;;;;;;4.53;3.28;;;6.00;99.90;;;;;;5072590;28;20055;-71
2022/12/08 11:01:29;;;;;;;6.20;3.28;;;5.80;99.90;;;;;;5090288;28;20036;-71
2022/12/08 11:04:01;;;;;;;7.13;3.25;;;5.70;99.90;;;;;;5093334;28;20407;-71
2022/12/08 11:06:32;;;;;;;7.07;3.63;;;5.60;99.90;;;;;;5111394;28;20029;-71
2022/12/08 11:09:01;;;;;;;9.70;4.00;;;5.50;99.90;;;;;;5089946;28;20162;-71
2022/12/08 11:11:47;;;;;;;4.95;3.95;;;5.40;99.90;;;;;;5107188;28;20046;-71
2022/12/08 11:14:26;;;;;;;7.00;4.22;;;5.60;99.90;;;;;;5111264;28;20506;-72
2022/12/08 11:17:03;;;;;;;8.55;4.28;;;5.80;99.90;;;;;;5111123;28;20087;-70
2022/12/08 11:19:29;;;;;;;9.57;5.20;;;5.80;99.90;;;;;;5111016;28;20126;-72
2022/12/08 11:21:55;;;;;;;9.90;4.72;;;5.80;99.90;;;;;;5111054;28;20051;-71
2022/12/08 11:24:27;;;;;;;9.07;4.10;;;5.80;99.90;;;;;;5111247;28;20043;-72
2022/12/08 11:27:02;;;;;;;4.55;1.67;;;5.70;99.90;;;;;;5092154;28;20036;-70
2022/12/08 11:29:31;;;;;;;7.80;1.40;;;5.50;99.90;;;;;;5070296;28;20051;-71
2022/12/08 11:32:15;;;;;;;3.42;0.80;;;5.30;99.90;;;;;;5077118;28;20496;-71
2022/12/08 11:35:05;;;;;;;4.80;0.75;;;5.00;99.90;;;;;;5090811;28;20046;-71
2022/12/08 11:37:41;;;;;;;3.65;0.40;;;4.80;99.90;;;;;;5066105;28;20393;-71
2022/12/08 11:40:33;;;;;;;1.92;0.43;;;4.70;99.90;;;;;;5089465;28;20115;-71
2022/12/08 11:43:44;;;;;;;2.83;0.60;;;4.60;99.90;;;;;;5090062;28;20105;-71
2022/12/08 11:46:26;;;;;;;3.25;0.55;;;4.50;99.90;;;;;;5089580;28;20101;-71
2022/12/08 11:48:58;;;;;;;2.42;0.50;;;4.40;99.90;;;;;;5072053;28;20040;-71
2022/12/08 11:51:32;;;;;;;1.95;0.70;;;4.40;99.90;;;;;;5069661;28;20050;-71
2022/12/08 11:54:11;;;;;;;2.53;0.40;;;4.40;99.90;;;;;;5071650;28;20059;-71
2022/12/08 11:56:52;;;;;;;1.38;0.40;;;4.40;99.90;;;;;;5089525;28;20457;-71
2022/12/08 11:59:38;;;;;;;3.03;0.60;;;4.50;99.90;;;;;;5088817;28;20051;-72
2022/12/08 12:02:11;;;;;;;4.40;1.00;;;4.90;99.90;;;;;;5092694;28;20053;-71
2022/12/08 12:04:36;;;;;;;1.98;0.52;;;5.30;99.90;;;;;;5072034;28;20058;-71
2022/12/08 12:07:29;;;;;;;2.70;1.20;;;5.50;99.90;;;;;;5071886;28;20476;-71
2022/12/08 12:10:23;;;;;;;2.25;0.93;;;5.80;99.90;;;;;;5087526;28;20043;-71
2022/12/08 12:12:59;;;;;;;2.53;0.50;;;6.00;99.90;;;;;;5098734;28;20448;-72
2022/12/08 12:15:36;;;;;;;6.43;1.83;;;6.00;99.90;;;;;;5071201;28;20083;-71
2022/12/08 12:18:26;;;;;;;4.28;0.52;;;6.00;99.90;;;;;;5087430;28;20039;-72
2022/12/08 12:21:03;;;;;;;1.67;0.50;;;6.10;99.90;;;;;;5089790;28;20044;-71
2022/12/08 12:23:55;;;;;;;3.50;0.55;;;6.10;99.90;;;;;;5098496;28;20031;-71
2022/12/08 12:26:30;;;;;;;3.47;0.90;;;6.20;99.90;;;;;;5062808;28;20059;-71
2022/12/08 12:29:28;;;;;;;3.75;1.35;;;6.20;99.90;;;;;;5089781;28;20048;-71
2022/12/08 12:32:16;;;;;;;6.18;0.73;;;6.20;99.90;;;;;;5055982;28;20044;-71
2022/12/08 12:34:56;;;;;;;3.85;1.48;;;6.10;99.90;;;;;;5086779;28;20395;-70
2022/12/08 12:37:42;;;;;;;4.60;0.75;;;6.10;99.90;;;;;;5077024;28;20062;-71
2022/12/08 12:40:22;;;;;;;6.03;1.10;;;6.00;99.90;;;;;;5098666;28;20164;-71
2022/12/08 12:42:55;;;;;;;3.72;1.42;;;5.90;99.90;;;;;;5071338;28;20036;-71
2022/12/08 12:45:33;;;;;;;3.92;1.85;;;5.70;99.90;;;;;;5104971;28;20490;-71
2022/12/08 12:48:00;;;;;;;5.53;2.25;;;5.60;99.90;;;;;;5068132;28;20040;-71
2022/12/08 12:50:33;;;;;;;4.35;1.48;;;5.50;99.90;;;;;;5086777;28;20051;-71
2022/12/08 12:53:26;;;;;;;2.75;0.70;;;5.40;99.90;;;;;;5096163;28;20051;-71
2022/12/08 12:56:02;;;;;;;4.07;0.90;;;5.40;99.90;;;;;;5078267;28;20510;-71
2022/12/08 12:58:30;;;;;;;3.30;0.98;;;5.30;99.90;;;;;;5065170;28;20123;-71
2022/12/08 13:01:11;;;;;;;5.93;2.75;;;5.30;99.90;;;;;;5083294;28;20579;-71
2022/12/08 13:04:38;;;;;;;5.45;1.70;;;5.40;99.90;;;;;;5087742;28;20140;-71
2022/12/08 13:07:22;;;;;;;6.03;1.77;;;5.40;99.90;;;;;;5049866;28;20117;-71
2022/12/08 13:09:57;;;;;;;7.53;2.70;;;5.50;99.90;;;;;;5085579;28;20744;-71
2022/12/08 13:12:25;;;;;;;4.28;1.27;;;5.50;99.90;;;;;;5070952;28;20044;-71
2022/12/08 13:15:00;;;;;;;4.93;1.40;;;5.50;99.90;;;;;;5098212;28;20044;-70
2022/12/08 13:17:35;;;;;;;3.97;1.00;;;5.40;99.90;;;;;;5084275;28;20040;-70
2022/12/08 13:20:05;;;;;;;6.78;1.42;;;5.30;99.90;;;;;;5083929;28;20042;-71
2022/12/08 13:22:53;;;;;;;7.25;1.33;;;5.30;99.90;;;;;;5109525;28;20040;-71
2022/12/08 13:25:37;;;;;;;6.07;1.13;;;5.20;99.90;;;;;;5090203;28;20044;-71